sensor_id;sensor_type;location;lat;lon;timestamp;pressure;altitude;pressure_sealevel;temperature;humidity
18918;BME280;9591;52.742;13.650;2023-10-19T00:00:59;100050.09;;;26.94;22.13
18918;BME280;9591;52.742;13.650;2023-10-19T00:03:48;100051.72;;;26.22;22.54
18918;BME280;9591;52.742;13.650;2023-10-19T00:06:35;100053.31;;;27.14;22.02
18918;BME280;9591;52.742;13.650;2023-10-19T00:09:25;100040.38;;;27.32;21.96
18918;BME280;9591;52.742;13.650;2023-10-19T00:12:16;100016.28;;;27.76;21.29
18918;BME280;9591;52.742;13.650;2023-10-19T00:15:08;100008.03;;;27.53;21.44
18918;BME280;9591;52.742;13.650;2023-10-19T00:17:56;100019.31;;;27.81;21.36
18918;BME280;9591;52.742;13.650;2023-10-19T00:20:45;100015.34;;;27.53;21.71
18918;BME280;9591;52.742;13.650;2023-10-19T00:23:36;100011.28;;;27.49;21.32
18918;BME280;9591;52.742;13.650;2023-10-19T00:26:26;100005.09;;;27.71;21.45
18918;BME280;9591;52.742;13.650;2023-10-19T00:29:16;100004.19;;;27.39;21.53
18918;BME280;9591;52.742;13.650;2023-10-19T00:32:16;100006.47;;;27.59;21.37
18918;BME280;9591;52.742;13.650;2023-10-19T00:35:05;100001.44;;;27.39;21.54
18918;BME280;9591;52.742;13.650;2023-10-19T00:38:14;99993.66;;;27.36;21.80
18918;BME280;9591;52.742;13.650;2023-10-19T00:41:22;99993.78;;;27.43;21.46
18918;BME280;9591;52.742;13.650;2023-10-19T00:44:15;99983.34;;;27.16;22.02
18918;BME280;9591;52.742;13.650;2023-10-19T00:47:08;99986.53;;;27.27;21.97
18918;BME280;9591;52.742;13.650;2023-10-19T00:49:58;99989.78;;;27.23;22.17
18918;BME280;9591;52.742;13.650;2023-10-19T00:52:49;99984.03;;;27.18;21.68
18918;BME280;9591;52.742;13.650;2023-10-19T00:55:38;99962.88;;;27.44;21.78
18918;BME280;9591;52.742;13.650;2023-10-19T00:58:25;99956.28;;;27.30;21.58
18918;BME280;9591;52.742;13.650;2023-10-19T01:01:17;99944.78;;;27.20;21.68
18918;BME280;9591;52.742;13.650;2023-10-19T01:04:06;99936.09;;;27.25;21.77
18918;BME280;9591;52.742;13.650;2023-10-19T01:06:54;99933.59;;;27.15;21.74
18918;BME280;9591;52.742;13.650;2023-10-19T01:09:58;99926.25;;;26.52;22.31
18918;BME280;9591;52.742;13.650;2023-10-19T01:12:47;99932.34;;;27.26;21.99
18918;BME280;9591;52.742;13.650;2023-10-19T01:15:37;99914.84;;;27.28;21.50
18918;BME280;9591;52.742;13.650;2023-10-19T01:18:24;99911.19;;;27.05;22.16
18918;BME280;9591;52.742;13.650;2023-10-19T01:21:14;99909.75;;;27.25;21.50
18918;BME280;9591;52.742;13.650;2023-10-19T01:24:07;99887.09;;;27.02;21.69
18918;BME280;9591;52.742;13.650;2023-10-19T01:26:54;99911.47;;;27.26;21.85
18918;BME280;9591;52.742;13.650;2023-10-19T01:29:42;99900.09;;;27.23;21.59
18918;BME280;9591;52.742;13.650;2023-10-19T01:32:29;99901.38;;;26.88;21.88
18918;BME280;9591;52.742;13.650;2023-10-19T01:35:16;99882.84;;;26.99;22.24
18918;BME280;9591;52.742;13.650;2023-10-19T01:38:03;99874.31;;;27.10;21.76
18918;BME280;9591;52.742;13.650;2023-10-19T01:40:51;99881.16;;;26.90;21.98
18918;BME280;9591;52.742;13.650;2023-10-19T01:43:41;99880.31;;;26.98;21.98
18918;BME280;9591;52.742;13.650;2023-10-19T01:46:28;99884.88;;;27.05;21.88
18918;BME280;9591;52.742;13.650;2023-10-19T01:49:19;99876.13;;;27.26;21.68
18918;BME280;9591;52.742;13.650;2023-10-19T01:52:13;99874.50;;;27.09;21.59
18918;BME280;9591;52.742;13.650;2023-10-19T01:55:00;99865.69;;;27.07;21.83
18918;BME280;9591;52.742;13.650;2023-10-19T01:57:54;99856.91;;;26.97;21.84
18918;BME280;9591;52.742;13.650;2023-10-19T02:00:42;99856.66;;;27.15;21.94
18918;BME280;9591;52.742;13.650;2023-10-19T02:03:29;99850.66;;;26.80;22.00
18918;BME280;9591;52.742;13.650;2023-10-19T02:06:18;99841.09;;;26.92;22.13
18918;BME280;9591;52.742;13.650;2023-10-19T02:09:07;99834.22;;;26.73;22.40
18918;BME280;9591;52.742;13.650;2023-10-19T02:12:04;99824.03;;;26.75;21.97
18918;BME280;9591;52.742;13.650;2023-10-19T02:14:54;99817.84;;;26.90;21.83
18918;BME280;9591;52.742;13.650;2023-10-19T02:17:41;99813.88;;;26.69;22.29
18918;BME280;9591;52.742;13.650;2023-10-19T02:20:29;99816.91;;;26.74;22.31
18918;BME280;9591;52.742;13.650;2023-10-19T02:23:25;99809.75;;;26.82;21.94
18918;BME280;9591;52.742;13.650;2023-10-19T02:26:12;99806.97;;;26.98;21.89
18918;BME280;9591;52.742;13.650;2023-10-19T02:28:59;99804.22;;;26.67;22.32
18918;BME280;9591;52.742;13.650;2023-10-19T02:31:50;99804.03;;;26.68;22.06
18918;BME280;9591;52.742;13.650;2023-10-19T02:34:36;99810.34;;;26.92;21.87
18918;BME280;9591;52.742;13.650;2023-10-19T02:37:23;99805.00;;;26.84;21.87
18918;BME280;9591;52.742;13.650;2023-10-19T02:40:12;99790.34;;;26.54;22.33
18918;BME280;9591;52.742;13.650;2023-10-19T02:43:05;99795.00;;;26.76;22.37
18918;BME280;9591;52.742;13.650;2023-10-19T02:45:51;99791.69;;;26.97;21.97
18918;BME280;9591;52.742;13.650;2023-10-19T02:48:40;99782.84;;;26.95;21.95
18918;BME280;9591;52.742;13.650;2023-10-19T02:51:30;99784.41;;;26.89;21.91
18918;BME280;9591;52.742;13.650;2023-10-19T02:54:18;99783.53;;;26.97;21.67
18918;BME280;9591;52.742;13.650;2023-10-19T02:57:05;99780.78;;;27.05;21.81
18918;BME280;9591;52.742;13.650;2023-10-19T02:59:54;99774.16;;;26.68;22.22
18918;BME280;9591;52.742;13.650;2023-10-19T03:02:40;99762.97;;;27.02;22.06
18918;BME280;9591;52.742;13.650;2023-10-19T03:05:29;99762.25;;;27.08;21.95
18918;BME280;9591;52.742;13.650;2023-10-19T03:08:16;99762.56;;;26.83;22.20
18918;BME280;9591;52.742;13.650;2023-10-19T03:11:05;99748.16;;;26.74;22.38
18918;BME280;9591;52.742;13.650;2023-10-19T03:13:52;99747.56;;;26.87;21.85
18918;BME280;9591;52.742;13.650;2023-10-19T03:16:39;99747.78;;;26.30;22.41
18918;BME280;9591;52.742;13.650;2023-10-19T03:19:27;99739.44;;;25.68;23.20
18918;BME280;9591;52.742;13.650;2023-10-19T03:22:15;99736.00;;;26.62;22.11
18918;BME280;9591;52.742;13.650;2023-10-19T03:25:03;99741.53;;;27.07;21.76
18918;BME280;9591;52.742;13.650;2023-10-19T03:28:18;99732.91;;;27.04;21.99
18918;BME280;9591;52.742;13.650;2023-10-19T03:31:04;99738.91;;;27.22;21.70
18918;BME280;9591;52.742;13.650;2023-10-19T03:33:53;99735.03;;;26.86;21.92
18918;BME280;9591;52.742;13.650;2023-10-19T03:36:44;99720.34;;;27.03;22.06
18918;BME280;9591;52.742;13.650;2023-10-19T03:39:34;99723.19;;;27.09;21.87
18918;BME280;9591;52.742;13.650;2023-10-19T03:42:24;99716.56;;;26.81;22.27
18918;BME280;9591;52.742;13.650;2023-10-19T03:45:13;99703.50;;;27.07;22.15
18918;BME280;9591;52.742;13.650;2023-10-19T03:48:01;99710.44;;;27.10;21.97
18918;BME280;9591;52.742;13.650;2023-10-19T03:50:56;99703.56;;;27.22;21.91
18918;BME280;9591;52.742;13.650;2023-10-19T03:53:43;99695.97;;;27.18;21.89
18918;BME280;9591;52.742;13.650;2023-10-19T03:56:35;99696.72;;;26.81;21.96
18918;BME280;9591;52.742;13.650;2023-10-19T03:59:23;99692.53;;;26.93;22.19
18918;BME280;9591;52.742;13.650;2023-10-19T04:02:15;99685.56;;;26.98;22.13
18918;BME280;9591;52.742;13.650;2023-10-19T04:05:07;99685.69;;;26.43;22.55
18918;BME280;9591;52.742;13.650;2023-10-19T04:07:56;99679.28;;;26.98;22.12
18918;BME280;9591;52.742;13.650;2023-10-19T04:10:45;99680.63;;;27.02;22.00
18918;BME280;9591;52.742;13.650;2023-10-19T04:13:54;99671.78;;;26.77;22.06
18918;BME280;9591;52.742;13.650;2023-10-19T04:16:41;99669.13;;;26.92;22.05
18918;BME280;9591;52.742;13.650;2023-10-19T04:19:29;99656.59;;;27.14;22.11
18918;BME280;9591;52.742;13.650;2023-10-19T04:22:16;99656.00;;;26.95;21.69
18918;BME280;9591;52.742;13.650;2023-10-19T04:25:08;99653.34;;;27.18;21.87
18918;BME280;9591;52.742;13.650;2023-10-19T04:27:57;99660.25;;;27.43;21.48
18918;BME280;9591;52.742;13.650;2023-10-19T04:30:47;99657.78;;;27.34;21.65
18918;BME280;9591;52.742;13.650;2023-10-19T04:33:34;99651.75;;;27.01;22.17
18918;BME280;9591;52.742;13.650;2023-10-19T04:36:22;99653.63;;;27.23;21.86
18918;BME280;9591;52.742;13.650;2023-10-19T04:39:08;99647.41;;;27.37;21.53
18918;BME280;9591;52.742;13.650;2023-10-19T04:41:59;99643.44;;;27.02;21.73
18918;BME280;9591;52.742;13.650;2023-10-19T04:44:46;99640.19;;;26.53;22.19
18918;BME280;9591;52.742;13.650;2023-10-19T04:47:35;99644.66;;;26.69;22.21
18918;BME280;9591;52.742;13.650;2023-10-19T04:50:21;99639.41;;;26.90;21.98
18918;BME280;9591;52.742;13.650;2023-10-19T04:53:08;99629.44;;;26.21;22.88
18918;BME280;9591;52.742;13.650;2023-10-19T04:55:55;99624.16;;;27.12;21.60
18918;BME280;9591;52.742;13.650;2023-10-19T04:58:43;99624.31;;;26.88;22.06
18918;BME280;9591;52.742;13.650;2023-10-19T05:01:30;99623.28;;;26.89;21.90
18918;BME280;9591;52.742;13.650;2023-10-19T05:04:20;99622.09;;;26.37;22.63
18918;BME280;9591;52.742;13.650;2023-10-19T05:07:07;99617.47;;;26.46;22.42
18918;BME280;9591;52.742;13.650;2023-10-19T05:09:57;99612.56;;;26.95;22.19
18918;BME280;9591;52.742;13.650;2023-10-19T05:12:45;99616.41;;;26.55;22.41
18918;BME280;9591;52.742;13.650;2023-10-19T05:15:31;99609.50;;;26.75;22.16
18918;BME280;9591;52.742;13.650;2023-10-19T05:18:19;99611.03;;;26.93;22.02
18918;BME280;9591;52.742;13.650;2023-10-19T05:21:07;99608.91;;;26.34;22.36
18918;BME280;9591;52.742;13.650;2023-10-19T05:23:55;99612.56;;;26.95;21.83
18918;BME280;9591;52.742;13.650;2023-10-19T05:26:42;99608.97;;;27.03;22.25
18918;BME280;9591;52.742;13.650;2023-10-19T05:29:31;99582.56;;;26.89;22.09
18918;BME280;9591;52.742;13.650;2023-10-19T05:32:18;99608.00;;;27.19;21.91
18918;BME280;9591;52.742;13.650;2023-10-19T05:35:05;99611.28;;;25.90;22.83
18918;BME280;9591;52.742;13.650;2023-10-19T05:37:53;99605.31;;;26.88;22.33
18918;BME280;9591;52.742;13.650;2023-10-19T05:40:41;99614.75;;;26.77;22.37
18918;BME280;9591;52.742;13.650;2023-10-19T05:43:28;99611.03;;;26.93;21.95
18918;BME280;9591;52.742;13.650;2023-10-19T05:46:16;99610.28;;;27.07;22.13
18918;BME280;9591;52.742;13.650;2023-10-19T05:49:04;99609.50;;;26.98;21.92
18918;BME280;9591;52.742;13.650;2023-10-19T05:51:52;99605.28;;;27.19;21.90
18918;BME280;9591;52.742;13.650;2023-10-19T05:54:40;99607.63;;;27.22;21.68
18918;BME280;9591;52.742;13.650;2023-10-19T05:57:27;99602.38;;;27.20;21.70
18918;BME280;9591;52.742;13.650;2023-10-19T06:00:14;99607.50;;;27.15;21.95
18918;BME280;9591;52.742;13.650;2023-10-19T06:03:03;99597.13;;;27.19;21.96
18918;BME280;9591;52.742;13.650;2023-10-19T06:05:50;99596.78;;;27.36;21.72
18918;BME280;9591;52.742;13.650;2023-10-19T06:08:40;99592.38;;;26.98;21.92
18918;BME280;9591;52.742;13.650;2023-10-19T06:11:29;99585.22;;;26.51;22.45
18918;BME280;9591;52.742;13.650;2023-10-19T06:14:18;99582.66;;;26.95;22.04
18918;BME280;9591;52.742;13.650;2023-10-19T06:17:05;99588.63;;;27.36;21.74
18918;BME280;9591;52.742;13.650;2023-10-19T06:19:51;99588.63;;;26.99;22.25
18918;BME280;9591;52.742;13.650;2023-10-19T06:22:39;99587.34;;;27.09;21.87
18918;BME280;9591;52.742;13.650;2023-10-19T06:25:25;99572.69;;;26.73;22.33
18918;BME280;9591;52.742;13.650;2023-10-19T06:28:15;99560.81;;;26.89;22.29
18918;BME280;9591;52.742;13.650;2023-10-19T06:31:02;99559.91;;;26.82;22.57
18918;BME280;9591;52.742;13.650;2023-10-19T06:33:50;99557.09;;;26.44;22.76
18918;BME280;9591;52.742;13.650;2023-10-19T06:36:37;99549.47;;;26.70;22.68
18918;BME280;9591;52.742;13.650;2023-10-19T06:39:24;99553.94;;;27.24;22.32
18918;BME280;9591;52.742;13.650;2023-10-19T06:42:11;99558.50;;;26.86;22.37
18918;BME280;9591;52.742;13.650;2023-10-19T06:45:01;99562.94;;;27.24;22.33
18918;BME280;9591;52.742;13.650;2023-10-19T06:47:49;99571.59;;;27.05;22.41
18918;BME280;9591;52.742;13.650;2023-10-19T06:50:36;99565.16;;;26.83;22.91
18918;BME280;9591;52.742;13.650;2023-10-19T06:53:23;99561.06;;;27.25;22.46
18918;BME280;9591;52.742;13.650;2023-10-19T06:56:10;99549.09;;;26.96;22.66
18918;BME280;9591;52.742;13.650;2023-10-19T06:58:57;99549.25;;;27.32;22.74
18918;BME280;9591;52.742;13.650;2023-10-19T07:01:45;99544.44;;;26.82;22.86
18918;BME280;9591;52.742;13.650;2023-10-19T07:04:33;99543.31;;;27.14;22.83
18918;BME280;9591;52.742;13.650;2023-10-19T07:07:21;99550.47;;;26.47;23.54
18918;BME280;9591;52.742;13.650;2023-10-19T07:10:09;99554.56;;;26.88;23.19
18918;BME280;9591;52.742;13.650;2023-10-19T07:12:57;99539.06;;;26.97;22.96
18918;BME280;9591;52.742;13.650;2023-10-19T07:15:45;99534.50;;;27.12;23.13
18918;BME280;9591;52.742;13.650;2023-10-19T07:18:33;99545.19;;;27.14;22.95
18918;BME280;9591;52.742;13.650;2023-10-19T07:21:20;99546.56;;;26.49;23.40
18918;BME280;9591;52.742;13.650;2023-10-19T07:24:08;99533.09;;;26.78;23.64
18918;BME280;9591;52.742;13.650;2023-10-19T07:26:57;99503.22;;;26.78;23.44
18918;BME280;9591;52.742;13.650;2023-10-19T07:29:50;99516.09;;;26.85;23.51
18918;BME280;9591;52.742;13.650;2023-10-19T07:32:37;99517.22;;;26.44;23.65
18918;BME280;9591;52.742;13.650;2023-10-19T07:35:26;99514.84;;;27.25;23.44
18918;BME280;9591;52.742;13.650;2023-10-19T07:38:20;99505.00;;;27.09;23.17
18918;BME280;9591;52.742;13.650;2023-10-19T07:41:07;99501.63;;;26.69;23.77
18918;BME280;9591;52.742;13.650;2023-10-19T07:43:55;99507.59;;;27.02;23.57
18918;BME280;9591;52.742;13.650;2023-10-19T07:46:42;99506.09;;;27.00;23.34
18918;BME280;9591;52.742;13.650;2023-10-19T07:49:29;99510.34;;;27.17;22.98
18918;BME280;9591;52.742;13.650;2023-10-19T07:52:17;99508.22;;;27.57;22.63
18918;BME280;9591;52.742;13.650;2023-10-19T07:55:05;99512.91;;;27.48;23.06
18918;BME280;9591;52.742;13.650;2023-10-19T07:57:53;99509.41;;;27.25;23.03
18918;BME280;9591;52.742;13.650;2023-10-19T08:00:40;99513.28;;;27.45;22.68
18918;BME280;9591;52.742;13.650;2023-10-19T08:03:27;99504.78;;;27.63;22.89
18918;BME280;9591;52.742;13.650;2023-10-19T08:06:14;99514.91;;;27.02;22.79
18918;BME280;9591;52.742;13.650;2023-10-19T08:09:03;99517.88;;;27.74;22.83
18918;BME280;9591;52.742;13.650;2023-10-19T08:11:51;99512.00;;;27.03;22.75
18918;BME280;9591;52.742;13.650;2023-10-19T08:14:41;99513.78;;;26.96;23.13
18918;BME280;9591;52.742;13.650;2023-10-19T08:17:28;99520.63;;;27.59;23.08
18918;BME280;9591;52.742;13.650;2023-10-19T08:20:16;99503.78;;;28.00;22.52
18918;BME280;9591;52.742;13.650;2023-10-19T08:23:09;99507.53;;;27.10;23.34
18918;BME280;9591;52.742;13.650;2023-10-19T08:25:58;99512.81;;;27.56;22.46
18918;BME280;9591;52.742;13.650;2023-10-19T08:28:45;99502.03;;;27.78;22.35
18918;BME280;9591;52.742;13.650;2023-10-19T08:31:31;99485.16;;;27.53;22.63
18918;BME280;9591;52.742;13.650;2023-10-19T08:34:21;99474.50;;;28.02;22.02
18918;BME280;9591;52.742;13.650;2023-10-19T08:37:10;99478.22;;;27.35;23.02
18918;BME280;9591;52.742;13.650;2023-10-19T08:39:57;99479.16;;;27.57;22.79
18918;BME280;9591;52.742;13.650;2023-10-19T08:42:46;99465.91;;;27.84;22.51
18918;BME280;9591;52.742;13.650;2023-10-19T08:45:34;99478.59;;;28.27;22.31
18918;BME280;9591;52.742;13.650;2023-10-19T08:48:21;99479.16;;;27.42;22.75
18918;BME280;9591;52.742;13.650;2023-10-19T08:51:10;99466.81;;;27.69;22.72
18918;BME280;9591;52.742;13.650;2023-10-19T08:53:57;99471.84;;;28.08;22.03
18918;BME280;9591;52.742;13.650;2023-10-19T08:56:45;99464.63;;;27.50;22.68
18918;BME280;9591;52.742;13.650;2023-10-19T08:59:34;99477.47;;;27.56;22.39
18918;BME280;9591;52.742;13.650;2023-10-19T09:02:21;99474.41;;;27.59;22.74
18918;BME280;9591;52.742;13.650;2023-10-19T09:05:08;99471.75;;;27.36;23.06
18918;BME280;9591;52.742;13.650;2023-10-19T09:08:06;99466.22;;;27.45;22.70
18918;BME280;9591;52.742;13.650;2023-10-19T09:10:53;99463.34;;;27.97;22.24
18918;BME280;9591;52.742;13.650;2023-10-19T09:13:45;99462.47;;;27.46;23.00
18918;BME280;9591;52.742;13.650;2023-10-19T09:16:35;99449.66;;;27.69;22.30
18918;BME280;9591;52.742;13.650;2023-10-19T09:19:35;99453.94;;;27.34;22.89
18918;BME280;9591;52.742;13.650;2023-10-19T09:22:23;99462.84;;;28.08;22.31
18918;BME280;9591;52.742;13.650;2023-10-19T09:25:10;99458.38;;;28.00;22.23
18918;BME280;9591;52.742;13.650;2023-10-19T09:27:57;99447.81;;;28.12;22.20
18918;BME280;9591;52.742;13.650;2023-10-19T09:30:44;99455.72;;;28.43;22.15
18918;BME280;9591;52.742;13.650;2023-10-19T09:33:34;99449.31;;;28.15;22.42
18918;BME280;9591;52.742;13.650;2023-10-19T09:36:21;99451.63;;;28.54;21.70
18918;BME280;9591;52.742;13.650;2023-10-19T09:39:12;99452.28;;;28.56;21.62
18918;BME280;9591;52.742;13.650;2023-10-19T09:42:00;99445.03;;;28.69;21.74
18918;BME280;9591;52.742;13.650;2023-10-19T09:44:53;99447.09;;;28.39;22.08
18918;BME280;9591;52.742;13.650;2023-10-19T09:47:44;99436.06;;;28.97;21.67
18918;BME280;9591;52.742;13.650;2023-10-19T09:50:36;99429.44;;;28.57;21.99
18918;BME280;9591;52.742;13.650;2023-10-19T09:53:24;99424.63;;;28.16;22.01
18918;BME280;9591;52.742;13.650;2023-10-19T09:56:19;99435.22;;;27.90;22.47
18918;BME280;9591;52.742;13.650;2023-10-19T09:59:19;99429.31;;;28.22;22.46
18918;BME280;9591;52.742;13.650;2023-10-19T10:02:09;99430.50;;;28.62;22.27
18918;BME280;9591;52.742;13.650;2023-10-19T10:04:59;99385.28;;;28.19;21.91
18918;BME280;9591;52.742;13.650;2023-10-19T10:11:21;99442.81;;;28.52;22.25
18918;BME280;9591;52.742;13.650;2023-10-19T10:14:21;99443.19;;;27.91;22.63
18918;BME280;9591;52.742;13.650;2023-10-19T10:17:17;99440.88;;;28.10;22.27
18918;BME280;9591;52.742;13.650;2023-10-19T10:20:29;99430.69;;;28.82;21.99
18918;BME280;9591;52.742;13.650;2023-10-19T10:23:19;99430.88;;;28.81;21.78
18918;BME280;9591;52.742;13.650;2023-10-19T10:26:11;99424.13;;;28.49;22.01
18918;BME280;9591;52.742;13.650;2023-10-19T10:29:10;99419.88;;;28.39;22.06
18918;BME280;9591;52.742;13.650;2023-10-19T10:31:59;99430.50;;;27.48;23.27
18918;BME280;9591;52.742;13.650;2023-10-19T10:34:47;99421.16;;;27.35;23.33
18918;BME280;9591;52.742;13.650;2023-10-19T10:37:36;99412.09;;;28.64;22.00
18918;BME280;9591;52.742;13.650;2023-10-19T10:40:25;99401.06;;;29.00;21.92
18918;BME280;9591;52.742;13.650;2023-10-19T10:43:12;99402.59;;;28.82;21.99
18918;BME280;9591;52.742;13.650;2023-10-19T10:46:04;99381.53;;;28.69;22.11
18918;BME280;9591;52.742;13.650;2023-10-19T10:48:51;99387.44;;;28.02;22.65
18918;BME280;9591;52.742;13.650;2023-10-19T10:51:39;99371.75;;;28.04;22.10
18918;BME280;9591;52.742;13.650;2023-10-19T10:54:27;99365.09;;;28.28;22.33
18918;BME280;9591;52.742;13.650;2023-10-19T10:57:16;99359.06;;;28.88;21.86
18918;BME280;9591;52.742;13.650;2023-10-19T11:00:04;99360.63;;;27.99;22.25
18918;BME280;9591;52.742;13.650;2023-10-19T11:03:01;99366.81;;;27.21;23.41
18918;BME280;9591;52.742;13.650;2023-10-19T11:05:49;99369.81;;;27.11;23.90
18918;BME280;9591;52.742;13.650;2023-10-19T11:08:37;99367.53;;;28.01;22.90
18918;BME280;9591;52.742;13.650;2023-10-19T11:11:24;99364.81;;;27.80;22.98
18918;BME280;9591;52.742;13.650;2023-10-19T11:14:13;99374.34;;;27.69;23.00
18918;BME280;9591;52.742;13.650;2023-10-19T11:17:11;99362.75;;;27.46;22.75
18918;BME280;9591;52.742;13.650;2023-10-19T11:19:59;99387.13;;;28.33;22.52
18918;BME280;9591;52.742;13.650;2023-10-19T11:22:48;99380.38;;;28.07;22.81
18918;BME280;9591;52.742;13.650;2023-10-19T11:25:36;99374.19;;;27.41;23.21
18918;BME280;9591;52.742;13.650;2023-10-19T11:28:23;99371.63;;;27.91;22.74
18918;BME280;9591;52.742;13.650;2023-10-19T11:31:18;99366.75;;;28.50;22.16
18918;BME280;9591;52.742;13.650;2023-10-19T11:34:05;99362.72;;;28.74;22.20
18918;BME280;9591;52.742;13.650;2023-10-19T11:36:56;99350.44;;;27.86;22.87
18918;BME280;9591;52.742;13.650;2023-10-19T11:39:45;99351.19;;;29.00;21.80
18918;BME280;9591;52.742;13.650;2023-10-19T11:42:33;99348.41;;;28.65;22.27
18918;BME280;9591;52.742;13.650;2023-10-19T11:45:20;99346.28;;;28.12;22.47
18918;BME280;9591;52.742;13.650;2023-10-19T11:48:10;99346.63;;;28.79;22.12
18918;BME280;9591;52.742;13.650;2023-10-19T11:50:57;99339.88;;;28.41;22.28
18918;BME280;9591;52.742;13.650;2023-10-19T11:53:44;99345.03;;;28.29;22.34
18918;BME280;9591;52.742;13.650;2023-10-19T11:56:31;99336.69;;;28.16;22.14
18918;BME280;9591;52.742;13.650;2023-10-19T11:59:18;99283.66;;;28.26;22.22
18918;BME280;9591;52.742;13.650;2023-10-19T12:02:05;99320.78;;;28.13;22.24
18918;BME280;9591;52.742;13.650;2023-10-19T12:04:53;99318.00;;;28.06;22.88
18918;BME280;9591;52.742;13.650;2023-10-19T12:07:40;99322.16;;;28.51;22.36
18918;BME280;9591;52.742;13.650;2023-10-19T12:10:30;99325.84;;;27.94;23.03
18918;BME280;9591;52.742;13.650;2023-10-19T12:13:21;99316.38;;;28.33;22.30
18918;BME280;9591;52.742;13.650;2023-10-19T12:16:09;99318.91;;;28.34;22.60
18918;BME280;9591;52.742;13.650;2023-10-19T12:18:58;99302.72;;;28.54;22.08
18918;BME280;9591;52.742;13.650;2023-10-19T12:21:46;99294.59;;;28.67;22.26
18918;BME280;9591;52.742;13.650;2023-10-19T12:24:35;99290.97;;;28.60;22.27
18918;BME280;9591;52.742;13.650;2023-10-19T12:27:22;99299.72;;;29.18;21.99
18918;BME280;9591;52.742;13.650;2023-10-19T12:30:10;99299.84;;;29.45;21.85
18918;BME280;9591;52.742;13.650;2023-10-19T12:33:05;99303.16;;;29.40;21.32
18918;BME280;9591;52.742;13.650;2023-10-19T12:35:57;99306.06;;;29.39;21.78
18918;BME280;9591;52.742;13.650;2023-10-19T12:38:45;99305.16;;;29.18;21.68
18918;BME280;9591;52.742;13.650;2023-10-19T12:41:33;99306.06;;;29.39;21.46
18918;BME280;9591;52.742;13.650;2023-10-19T12:44:19;99311.09;;;29.35;21.28
18918;BME280;9591;52.742;13.650;2023-10-19T12:47:08;99311.84;;;29.16;21.70
18918;BME280;9591;52.742;13.650;2023-10-19T12:49:56;99302.91;;;29.35;21.69
18918;BME280;9591;52.742;13.650;2023-10-19T12:52:43;99305.25;;;29.38;21.33
18918;BME280;9591;52.742;13.650;2023-10-19T12:55:32;99293.34;;;29.65;21.19
18918;BME280;9591;52.742;13.650;2023-10-19T12:58:20;99291.53;;;29.18;21.78
18918;BME280;9591;52.742;13.650;2023-10-19T13:01:07;99288.13;;;29.03;21.95
18918;BME280;9591;52.742;13.650;2023-10-19T13:04:02;99286.50;;;29.22;22.18
18918;BME280;9591;52.742;13.650;2023-10-19T13:07:00;99288.50;;;29.48;21.57
18918;BME280;9591;52.742;13.650;2023-10-19T13:09:51;99297.06;;;28.90;22.32
18918;BME280;9591;52.742;13.650;2023-10-19T13:12:39;99289.44;;;29.20;22.52
18918;BME280;9591;52.742;13.650;2023-10-19T13:15:27;99299.28;;;28.80;22.25
18918;BME280;9591;52.742;13.650;2023-10-19T13:18:16;99296.41;;;29.36;21.76
18918;BME280;9591;52.742;13.650;2023-10-19T13:21:06;99298.16;;;29.50;22.30
18918;BME280;9591;52.742;13.650;2023-10-19T13:23:56;99305.56;;;29.89;21.64
18918;BME280;9591;52.742;13.650;2023-10-19T13:26:43;99301.09;;;29.42;22.31
18918;BME280;9591;52.742;13.650;2023-10-19T13:29:34;99295.00;;;29.47;22.58
18918;BME280;9591;52.742;13.650;2023-10-19T13:32:24;99283.00;;;29.34;22.63
18918;BME280;9591;52.742;13.650;2023-10-19T13:35:15;99278.78;;;29.25;22.71
18918;BME280;9591;52.742;13.650;2023-10-19T13:38:04;99276.41;;;28.75;23.30
18918;BME280;9591;52.742;13.650;2023-10-19T13:40:51;99272.66;;;29.17;23.13
18918;BME280;9591;52.742;13.650;2023-10-19T13:43:39;99272.97;;;29.42;23.17
18918;BME280;9591;52.742;13.650;2023-10-19T13:46:29;99277.31;;;29.29;23.32
18918;BME280;9591;52.742;13.650;2023-10-19T13:49:16;99286.75;;;28.86;23.77
18918;BME280;9591;52.742;13.650;2023-10-19T13:52:04;99279.59;;;29.26;23.44
18918;BME280;9591;52.742;13.650;2023-10-19T13:54:51;99275.75;;;29.07;23.41
18918;BME280;9591;52.742;13.650;2023-10-19T13:57:38;99272.72;;;29.30;23.17
18918;BME280;9591;52.742;13.650;2023-10-19T14:00:25;99273.16;;;28.86;23.88
18918;BME280;9591;52.742;13.650;2023-10-19T14:03:17;99280.59;;;28.77;23.89
18918;BME280;9591;52.742;13.650;2023-10-19T14:06:11;99267.31;;;28.95;24.15
18918;BME280;9591;52.742;13.650;2023-10-19T14:08:59;99278.66;;;28.99;24.09
18918;BME280;9591;52.742;13.650;2023-10-19T14:11:47;99278.59;;;28.86;24.09
18918;BME280;9591;52.742;13.650;2023-10-19T14:14:34;99269.09;;;29.16;23.85
18918;BME280;9591;52.742;13.650;2023-10-19T14:17:22;99251.41;;;28.99;23.54
18918;BME280;9591;52.742;13.650;2023-10-19T14:20:11;99254.78;;;29.01;24.13
18918;BME280;9591;52.742;13.650;2023-10-19T14:22:59;99267.94;;;28.91;24.47
18918;BME280;9591;52.742;13.650;2023-10-19T14:25:46;99267.22;;;29.23;23.99
18918;BME280;9591;52.742;13.650;2023-10-19T14:28:33;99279.66;;;29.39;23.26
18918;BME280;9591;52.742;13.650;2023-10-19T14:31:21;99266.19;;;29.24;23.61
18918;BME280;9591;52.742;13.650;2023-10-19T14:34:08;99256.16;;;29.38;23.63
18918;BME280;9591;52.742;13.650;2023-10-19T14:36:57;99259.13;;;29.50;23.30
18918;BME280;9591;52.742;13.650;2023-10-19T14:39:44;99256.19;;;29.51;23.42
18918;BME280;9591;52.742;13.650;2023-10-19T14:42:31;99264.03;;;29.07;23.71
18918;BME280;9591;52.742;13.650;2023-10-19T14:45:19;99260.91;;;29.16;23.56
18918;BME280;9591;52.742;13.650;2023-10-19T14:48:07;99265.44;;;28.96;23.97
18918;BME280;9591;52.742;13.650;2023-10-19T14:50:56;99254.28;;;29.39;23.30
18918;BME280;9591;52.742;13.650;2023-10-19T14:53:45;99255.50;;;29.29;23.70
18918;BME280;9591;52.742;13.650;2023-10-19T14:56:32;99261.41;;;28.85;23.98
18918;BME280;9591;52.742;13.650;2023-10-19T14:59:21;99255.66;;;29.15;23.68